Rechercher aéroport 
image banner adimage banner adimage banner ad
image banner ad

CN23 - Harvard

Situé à Yermo, United States

ICAO - CN23, IATA -

Données fournies par Airmate  

Information générale

Coordonnées: N34°57'42" W116°40'31"
Élévation : 1825 feet MSL.
Variation magnétique : 14° East
Voir autres Aéroports à California

Données opérationnelles

Special qualification required
Heure actuelle UTC:
Heure actuelle locale:
Météo à : KDAG - Barstow-Daggett ( 16 km )
METAR: KDAG 291550Z AUTO 29010KT 10SM CLR 31/09 A2997 RMK AO2 SLP117 T03110089
TAF: KDAG 291120Z 2912/3012 29008KT P6SM FEW200 FM292000 VRB06KT P6SM SCT120 FM300200 25014KT P6SM SCT120 BKN250 FM300900 29008KT P6SM SCT120 BKN200
Voir NOTAMs / SUP AIP / TFR affectant cet aéroport [VIEW]
Fréquences de communication: [VIEW]

Pistes:

Identifiant RWYQFULongueur (ft)Largeur (ft)SurfaceLDA (ft)
072640100EARTH
252640100EARTH

Coordonnées de l'aéroport

Adresse: Yermo United States

Vue satellite de CN23